createdAt,value
2019-05-10T00:00:15.711Z,99.90
2019-05-10T00:03:02.967Z,99.90
2019-05-10T00:05:50.644Z,99.90
2019-05-10T00:08:38.080Z,99.90
2019-05-10T00:11:32.829Z,99.90
2019-05-10T00:14:11.408Z,99.90
2019-05-10T00:16:40.637Z,99.90
2019-05-10T00:19:09.946Z,99.90
2019-05-10T00:21:39.195Z,99.90
2019-05-10T00:24:08.503Z,99.90
2019-05-10T00:26:37.756Z,99.90
2019-05-10T00:29:07.012Z,99.90
2019-05-10T00:31:36.351Z,99.90
2019-05-10T00:34:05.601Z,99.90
2019-05-10T00:36:35.357Z,99.90
2019-05-10T00:39:05.571Z,99.90
2019-05-10T00:41:34.806Z,99.90
2019-05-10T00:44:04.155Z,99.90
2019-05-10T00:46:33.468Z,99.90
2019-05-10T00:49:02.767Z,99.90
2019-05-10T00:51:32.028Z,99.90
2019-05-10T00:54:01.317Z,99.90
2019-05-10T00:56:30.556Z,99.90
2019-05-10T00:58:59.851Z,99.90
2019-05-10T01:01:29.094Z,99.90
2019-05-10T01:03:58.395Z,99.90
2019-05-10T01:06:27.698Z,99.90
2019-05-10T01:08:57.332Z,99.90
2019-05-10T01:11:26.666Z,99.90
2019-05-10T01:13:55.982Z,99.90
2019-05-10T01:16:25.278Z,99.90
2019-05-10T01:18:54.510Z,99.90
2019-05-10T01:21:24.070Z,99.90
2019-05-10T01:23:53.386Z,99.90
2019-05-10T01:26:22.697Z,99.90
2019-05-10T01:28:51.913Z,99.90
2019-05-10T01:31:21.309Z,99.90
2019-05-10T01:33:50.570Z,99.90
2019-05-10T01:36:22.792Z,99.90
2019-05-10T01:38:53.066Z,99.90
2019-05-10T01:41:22.407Z,99.90
2019-05-10T01:43:51.651Z,99.90
2019-05-10T01:46:20.930Z,99.90
2019-05-10T01:48:50.239Z,99.90
2019-05-10T01:51:19.390Z,99.90
2019-05-10T01:53:48.624Z,99.90
2019-05-10T01:56:17.849Z,99.90
2019-05-10T01:58:47.017Z,99.90
2019-05-10T02:01:16.346Z,99.90
2019-05-10T02:03:45.587Z,99.90
2019-05-10T02:06:14.868Z,99.90
2019-05-10T02:08:44.090Z,99.90
2019-05-10T02:11:14.176Z,99.90
2019-05-10T02:13:43.749Z,99.90
2019-05-10T02:16:12.995Z,99.90
2019-05-10T02:18:42.366Z,99.90
2019-05-10T02:21:11.556Z,99.90
2019-05-10T02:23:40.829Z,99.90
2019-05-10T02:26:10.268Z,99.90
2019-05-10T02:28:39.583Z,99.90
2019-05-10T02:31:08.902Z,99.90
2019-05-10T02:33:38.144Z,99.90
2019-05-10T02:36:07.387Z,99.90
2019-05-10T02:38:36.684Z,99.90
2019-05-10T02:41:06.140Z,99.90
2019-05-10T02:43:35.379Z,99.90
2019-05-10T02:46:05.500Z,99.90
2019-05-10T02:48:34.717Z,99.90
2019-05-10T02:51:04.001Z,99.90
2019-05-10T02:53:34.138Z,99.90
2019-05-10T02:56:03.882Z,99.90
2019-05-10T02:58:33.839Z,99.90
2019-05-10T03:01:04.730Z,99.90
2019-05-10T03:03:36.242Z,99.90
2019-05-10T03:06:05.655Z,99.90
2019-05-10T03:08:49.224Z,99.90
2019-05-10T03:11:18.572Z,99.90
2019-05-10T03:13:52.291Z,99.90
2019-05-10T03:16:23.297Z,99.90
2019-05-10T03:18:53.638Z,99.90
2019-05-10T03:21:24.590Z,99.90
2019-05-10T03:23:53.812Z,99.90
2019-05-10T03:26:23.136Z,99.90
2019-05-10T03:28:52.374Z,99.90
2019-05-10T03:31:21.663Z,99.90
2019-05-10T03:33:56.598Z,99.90
2019-05-10T03:36:21.794Z,99.90
2019-05-10T03:38:51.032Z,99.90
2019-05-10T03:41:20.259Z,99.90
2019-05-10T03:43:49.524Z,99.90
2019-05-10T03:46:18.822Z,99.90
2019-05-10T03:48:48.150Z,99.90
2019-05-10T03:51:17.456Z,99.90
2019-05-10T03:53:46.682Z,99.90
2019-05-10T03:56:15.928Z,99.90
2019-05-10T03:58:45.320Z,99.90
2019-05-10T04:01:14.604Z,99.90
2019-05-10T04:03:43.846Z,99.90
2019-05-10T04:06:13.075Z,99.90
2019-05-10T04:08:42.848Z,99.90
2019-05-10T04:11:12.083Z,99.90
2019-05-10T04:13:41.314Z,99.90
2019-05-10T04:16:10.629Z,99.90
2019-05-10T04:18:39.979Z,99.90
2019-05-10T04:21:09.313Z,99.90
2019-05-10T04:23:38.730Z,99.90
2019-05-10T04:26:08.047Z,99.90
2019-05-10T04:28:37.294Z,99.90
2019-05-10T04:31:06.545Z,99.90
2019-05-10T04:33:35.796Z,99.90
2019-05-10T04:36:05.465Z,99.90
2019-05-10T04:38:34.703Z,99.90
2019-05-10T04:41:04.020Z,99.90
2019-05-10T04:43:33.353Z,99.90
2019-05-10T04:46:02.565Z,99.90
2019-05-10T04:48:31.816Z,99.90
2019-05-10T04:51:01.094Z,99.90
2019-05-10T04:53:30.338Z,99.90
2019-05-10T04:55:59.686Z,99.90
2019-05-10T04:58:28.919Z,99.90
2019-05-10T05:00:58.255Z,99.90
2019-05-10T05:03:27.498Z,99.90
2019-05-10T05:05:56.719Z,99.90
2019-05-10T05:08:26.017Z,99.90
2019-05-10T05:10:55.326Z,99.90
2019-05-10T05:13:24.553Z,99.90
2019-05-10T05:15:53.811Z,99.90
2019-05-10T05:18:23.056Z,99.90
2019-05-10T05:20:52.300Z,99.90
2019-05-10T05:23:21.584Z,99.90
2019-05-10T05:25:50.891Z,99.90
2019-05-10T05:28:23.302Z,99.90
2019-05-10T05:30:51.106Z,99.90
2019-05-10T05:33:20.398Z,99.90
2019-05-10T05:35:49.647Z,99.90
2019-05-10T05:38:18.890Z,99.90
2019-05-10T05:40:48.192Z,99.90
2019-05-10T05:43:17.430Z,99.90
2019-05-10T05:45:47.674Z,99.90
2019-05-10T05:48:21.373Z,99.90
2019-05-10T05:50:47.784Z,99.90
2019-05-10T05:53:17.047Z,99.90
2019-05-10T05:55:46.375Z,99.90
2019-05-10T05:58:25.494Z,99.90
2019-05-10T06:00:47.167Z,99.90
2019-05-10T06:03:19.258Z,99.90
2019-05-10T06:05:47.362Z,99.90
2019-05-10T06:08:22.787Z,99.90
2019-05-10T06:10:56.437Z,99.90
2019-05-10T06:13:23.235Z,99.90
2019-05-10T06:15:49.386Z,99.90
2019-05-10T06:18:18.652Z,99.90
2019-05-10T06:20:47.951Z,99.90
2019-05-10T06:23:17.266Z,99.90
2019-05-10T06:25:46.530Z,99.90
2019-05-10T06:28:26.544Z,99.90
2019-05-10T06:30:46.755Z,99.90
2019-05-10T06:33:16.031Z,99.90
2019-05-10T06:35:45.368Z,99.90
2019-05-10T06:38:15.195Z,99.90
2019-05-10T06:40:47.585Z,99.90
2019-05-10T06:43:15.620Z,99.90
2019-05-10T06:45:46.723Z,99.90
2019-05-10T06:48:25.811Z,99.90
2019-05-10T06:50:47.007Z,99.90
2019-05-10T06:53:16.251Z,99.90
2019-05-10T06:55:45.496Z,99.90
2019-05-10T06:58:14.749Z,99.90
2019-05-10T07:00:47.340Z,99.90
2019-05-10T07:03:14.950Z,99.90
2019-05-10T07:05:44.202Z,99.90
2019-05-10T07:08:19.936Z,99.90
2019-05-10T07:10:44.357Z,99.90
2019-05-10T07:13:13.683Z,99.90
2019-05-10T07:15:44.823Z,99.90
2019-05-10T07:18:16.882Z,99.90
2019-05-10T07:20:44.762Z,99.90
2019-05-10T07:23:14.005Z,99.90
2019-05-10T07:25:46.443Z,99.90
2019-05-10T07:28:15.674Z,99.90
2019-05-10T07:30:45.138Z,99.90
2019-05-10T07:33:14.496Z,99.90
2019-05-10T07:35:43.751Z,99.90
2019-05-10T07:38:12.996Z,99.90
2019-05-10T07:40:42.281Z,99.90
2019-05-10T07:43:11.531Z,99.90
2019-05-10T07:45:40.792Z,99.90
2019-05-10T07:48:10.371Z,99.90
2019-05-10T07:50:42.363Z,99.90
2019-05-10T07:53:16.126Z,99.90
2019-05-10T07:55:42.152Z,99.90
2019-05-10T07:58:11.396Z,99.90
2019-05-10T08:00:44.479Z,99.90
2019-05-10T08:03:16.080Z,99.90
2019-05-10T08:05:46.340Z,99.90
2019-05-10T08:08:13.448Z,99.90
2019-05-10T08:10:42.696Z,99.90
2019-05-10T08:13:15.401Z,99.90
2019-05-10T08:15:42.950Z,99.90
2019-05-10T08:18:15.393Z,99.90
2019-05-10T08:20:50.459Z,99.90
2019-05-10T08:23:17.972Z,99.90
2019-05-10T08:25:47.200Z,99.90
2019-05-10T08:28:16.209Z,99.90
2019-05-10T08:30:58.700Z,99.90
2019-05-10T08:33:17.641Z,99.90
2019-05-10T08:35:51.663Z,99.90
2019-05-10T08:38:17.851Z,99.90
2019-05-10T08:40:47.082Z,99.90
2019-05-10T08:43:17.078Z,99.90
2019-05-10T08:45:49.438Z,99.90
2019-05-10T08:48:17.485Z,99.90
2019-05-10T08:50:55.950Z,99.90
2019-05-10T08:53:17.884Z,99.90
2019-05-10T08:55:47.199Z,99.90
2019-05-10T08:58:23.971Z,99.90
2019-05-10T09:00:54.663Z,99.90
2019-05-10T09:03:18.832Z,99.90
2019-05-10T09:05:48.370Z,99.90
2019-05-10T09:08:19.895Z,99.90
2019-05-10T09:10:49.171Z,99.90
2019-05-10T09:13:18.424Z,99.90
2019-05-10T09:15:52.002Z,99.90
2019-05-10T09:18:18.674Z,99.90
2019-05-10T09:20:47.919Z,99.90
2019-05-10T09:23:20.012Z,99.60
2019-05-10T09:25:48.199Z,98.60
2019-05-10T09:28:17.461Z,99.40
2019-05-10T09:30:59.365Z,99.30
2019-05-10T09:33:17.665Z,99.90
2019-05-10T09:35:51.742Z,99.60
2019-05-10T09:38:17.908Z,99.30
2019-05-10T09:40:52.955Z,99.80
2019-05-10T09:43:21.125Z,99.80
2019-05-10T09:45:49.010Z,99.20
2019-05-10T09:48:18.271Z,98.70
2019-05-10T09:50:47.597Z,99.30
2019-05-10T09:53:25.439Z,99.20
2019-05-10T09:55:55.120Z,99.30
2019-05-10T09:58:22.344Z,99.00
2019-05-10T10:00:50.317Z,96.90
2019-05-10T10:03:19.546Z,97.30
2019-05-10T10:05:48.826Z,96.70
2019-05-10T10:08:18.084Z,96.70
2019-05-10T10:10:47.655Z,95.70
2019-05-10T10:13:35.893Z,97.10
2019-05-10T10:15:52.116Z,96.70
2019-05-10T10:18:25.077Z,96.40
2019-05-10T10:20:49.961Z,94.70
2019-05-10T10:23:19.286Z,94.70
2019-05-10T10:25:48.594Z,94.80
2019-05-10T10:28:19.923Z,94.80
2019-05-10T10:30:51.700Z,93.90
2019-05-10T10:33:25.318Z,94.60
2019-05-10T10:35:55.529Z,95.30
2019-05-10T10:38:22.036Z,95.00
2019-05-10T10:40:51.408Z,95.10
2019-05-10T10:43:20.791Z,94.20
2019-05-10T10:45:50.161Z,95.10
2019-05-10T10:48:19.483Z,93.50
2019-05-10T10:50:53.372Z,93.50
2019-05-10T10:53:19.736Z,92.90
2019-05-10T10:55:54.590Z,92.80
2019-05-10T10:58:20.267Z,92.90
2019-05-10T11:00:49.566Z,93.80
2019-05-10T11:03:23.859Z,93.40
2019-05-10T11:05:50.941Z,93.80
2019-05-10T11:08:20.303Z,93.30
2019-05-10T11:10:50.731Z,91.00
2019-05-10T11:13:40.696Z,92.00
2019-05-10T11:15:51.871Z,93.50
2019-05-10T11:18:21.568Z,93.10
2019-05-10T11:20:53.905Z,92.70
2019-05-10T11:23:24.511Z,92.60
2019-05-10T11:25:56.567Z,92.50
2019-05-10T11:28:23.991Z,92.00
2019-05-10T11:30:53.267Z,90.90
2019-05-10T11:33:29.728Z,91.00
2019-05-10T11:35:57.571Z,91.50
2019-05-10T11:38:24.605Z,90.50
2019-05-10T11:40:53.857Z,87.70
2019-05-10T11:43:26.921Z,86.70
2019-05-10T11:45:54.019Z,85.90
2019-05-10T11:48:23.248Z,85.40
2019-05-10T11:50:52.587Z,83.00
2019-05-10T11:53:24.023Z,87.70
2019-05-10T11:55:52.782Z,85.60
2019-05-10T11:58:23.777Z,84.90
2019-05-10T12:00:59.223Z,84.10
2019-05-10T12:03:23.981Z,85.80
2019-05-10T12:06:04.696Z,86.20
2019-05-10T12:08:24.633Z,85.90
2019-05-10T12:11:07.440Z,86.70
2019-05-10T12:13:25.219Z,87.30
2019-05-10T12:15:54.634Z,87.90
2019-05-10T12:18:26.746Z,88.80
2019-05-10T12:26:05.558Z,86.70
2019-05-10T12:26:58.371Z,87.80
2019-05-10T12:27:07.505Z,86.10
2019-05-10T12:28:29.664Z,88.00
2019-05-10T12:31:01.308Z,88.20
2019-05-10T12:33:31.707Z,87.60
2019-05-10T12:36:00.457Z,86.70
2019-05-10T12:38:31.692Z,85.80
2019-05-10T12:41:01.418Z,87.10
2019-05-10T12:43:32.110Z,84.60
2019-05-10T12:46:01.432Z,85.90
2019-05-10T12:48:31.707Z,85.50
2019-05-10T12:51:07.542Z,86.80
2019-05-10T12:53:36.722Z,86.40
2019-05-10T12:56:03.608Z,82.90
2019-05-10T12:58:32.932Z,83.30
2019-05-10T13:01:02.260Z,83.30
2019-05-10T13:03:33.730Z,85.70
2019-05-10T13:06:02.576Z,83.40
2019-05-10T13:08:32.271Z,84.80
2019-05-10T13:11:01.563Z,82.30
2019-05-10T13:13:30.899Z,80.90
2019-05-10T13:16:03.444Z,80.10
2019-05-10T13:21:02.183Z,76.90
2019-05-10T13:23:31.482Z,75.00
2019-05-10T13:26:00.917Z,73.70
2019-05-10T13:28:30.636Z,73.90
2019-05-10T13:31:05.438Z,74.00
2019-05-10T13:33:40.986Z,66.10
2019-05-10T13:36:01.996Z,61.20
2019-05-10T13:38:31.262Z,63.50
2019-05-10T13:41:00.555Z,63.00
2019-05-10T13:43:30.284Z,64.60
2019-05-10T13:45:59.528Z,63.70
2019-05-10T13:48:28.865Z,63.30
2019-05-10T13:50:58.235Z,62.00
2019-05-10T13:53:27.540Z,61.60
2019-05-10T13:55:56.783Z,64.40
2019-05-10T13:58:26.099Z,63.50
2019-05-10T14:00:55.424Z,61.90
2019-05-10T14:03:24.723Z,61.90
2019-05-10T14:05:53.985Z,60.60
2019-05-10T14:08:23.302Z,62.20
2019-05-10T14:10:56.074Z,66.80
2019-05-10T14:13:23.541Z,65.20
2019-05-10T14:15:53.185Z,61.00
2019-05-10T14:18:22.527Z,60.60
2019-05-10T14:20:51.945Z,61.00
2019-05-10T14:23:21.195Z,61.20
2019-05-10T14:25:50.519Z,62.10
2019-05-10T14:28:20.209Z,60.70
2019-05-10T14:30:57.237Z,62.10
2019-05-10T14:33:20.597Z,61.60
2019-05-10T14:35:55.289Z,62.60
2019-05-10T14:38:22.922Z,62.70
2019-05-10T14:40:52.438Z,65.60
2019-05-10T14:43:21.759Z,63.60
2019-05-10T14:45:51.030Z,62.80
2019-05-10T14:48:27.733Z,62.00
2019-05-10T14:50:51.363Z,62.00
2019-05-10T14:53:25.687Z,62.60
2019-05-10T14:55:51.760Z,60.30
2019-05-10T14:58:21.185Z,60.30
2019-05-10T15:00:50.522Z,60.50
2019-05-10T15:03:19.785Z,60.70
2019-05-10T15:05:54.750Z,62.70
2019-05-10T15:08:20.194Z,62.00
2019-05-10T15:10:49.671Z,59.70
2019-05-10T15:13:19.675Z,61.70
2019-05-10T15:15:50.046Z,62.20
2019-05-10T15:18:19.382Z,65.40
2019-05-10T15:20:48.762Z,66.40
2019-05-10T15:23:18.043Z,65.60
2019-05-10T15:25:57.096Z,67.10
2019-05-10T15:28:19.039Z,68.60
2019-05-10T15:30:52.332Z,70.80
2019-05-10T15:33:19.296Z,71.00
2019-05-10T15:35:52.086Z,71.40
2019-05-10T15:38:19.559Z,73.40
2019-05-10T15:40:49.279Z,73.60
2019-05-10T15:43:19.063Z,74.70
2019-05-10T15:45:52.436Z,74.90
2019-05-10T15:48:19.425Z,76.30
2019-05-10T15:50:48.676Z,76.80
2019-05-10T15:53:19.450Z,77.70
2019-05-10T15:55:48.897Z,77.80
2019-05-10T15:58:18.234Z,77.40
2019-05-10T16:00:47.488Z,76.20
2019-05-10T16:03:16.839Z,76.20
2019-05-10T16:05:59.882Z,76.30
2019-05-10T16:08:17.504Z,76.10
2019-05-10T16:10:46.760Z,76.00
2019-05-10T16:13:23.579Z,76.70
2019-05-10T16:15:51.525Z,76.60
2019-05-10T16:18:18.606Z,77.10
2019-05-10T16:20:47.917Z,76.90
2019-05-10T16:23:17.201Z,78.40
2019-05-10T16:25:48.472Z,78.20
2019-05-10T16:28:20.900Z,79.30
2019-05-10T16:30:48.460Z,80.50
2019-05-10T16:33:18.238Z,81.40
2019-05-10T16:35:49.558Z,81.90
2019-05-10T16:38:18.617Z,81.80
2019-05-10T16:40:57.131Z,81.80
2019-05-10T16:43:23.969Z,82.80
2019-05-10T16:45:50.194Z,82.20
2019-05-10T16:48:19.653Z,82.90
2019-05-10T16:50:49.023Z,83.50
2019-05-10T16:53:18.273Z,83.70
2019-05-10T16:55:47.775Z,84.10
2019-05-10T16:58:17.984Z,84.50
2019-05-10T17:00:48.080Z,84.70
2019-05-10T17:03:18.541Z,85.50
2019-05-10T17:05:53.361Z,85.90
2019-05-10T17:08:19.564Z,86.10
2019-05-10T17:10:49.434Z,86.50
2019-05-10T17:13:18.787Z,87.30
2019-05-10T17:15:48.189Z,87.40
2019-05-10T17:18:19.835Z,87.80
2019-05-10T17:20:50.834Z,88.60
2019-05-10T17:23:19.871Z,89.20
2019-05-10T17:25:49.270Z,89.60
2019-05-10T17:28:18.535Z,90.10
2019-05-10T17:30:47.867Z,90.40
2019-05-10T17:33:17.222Z,90.70
2019-05-10T17:35:46.524Z,91.20
2019-05-10T17:38:16.293Z,91.30
2019-05-10T17:40:47.894Z,91.50
2019-05-10T17:43:20.845Z,91.70
2019-05-10T17:45:48.382Z,91.80
2019-05-10T17:48:17.747Z,92.40
2019-05-10T17:50:47.061Z,92.30
2019-05-10T17:53:16.724Z,92.60
2019-05-10T17:55:49.368Z,93.20
2019-05-10T17:58:17.364Z,93.60
2019-05-10T18:00:47.191Z,93.80
2019-05-10T18:03:16.370Z,94.00
2019-05-10T18:05:46.710Z,94.20
2019-05-10T18:08:16.652Z,94.40
2019-05-10T18:10:46.242Z,94.70
2019-05-10T18:13:15.523Z,95.20
2019-05-10T18:15:44.868Z,95.40
2019-05-10T18:18:14.187Z,95.40
2019-05-10T18:20:44.596Z,95.40
2019-05-10T18:23:20.433Z,95.50
2019-05-10T18:25:45.113Z,95.70
2019-05-10T18:28:17.773Z,95.90
2019-05-10T18:30:45.382Z,96.80
2019-05-10T18:33:14.709Z,97.10
2019-05-10T18:35:47.606Z,97.80
2019-05-10T18:38:16.524Z,97.90
2019-05-10T18:40:45.876Z,98.20
2019-05-10T18:43:15.122Z,98.60
2019-05-10T18:45:44.373Z,98.50
2019-05-10T18:48:13.631Z,98.80
2019-05-10T18:50:45.283Z,99.10
2019-05-10T18:53:14.061Z,99.30
2019-05-10T18:55:43.516Z,99.30
2019-05-10T18:58:12.751Z,99.90
2019-05-10T19:00:42.059Z,99.50
2019-05-10T19:03:11.284Z,99.90
2019-05-10T19:05:43.638Z,99.80
2019-05-10T19:08:13.001Z,99.80
2019-05-10T19:10:42.917Z,99.80
2019-05-10T19:13:12.598Z,99.90
2019-05-10T19:15:46.038Z,99.80
2019-05-10T19:18:17.821Z,99.90
2019-05-10T19:20:48.834Z,99.90
2019-05-10T19:23:19.315Z,99.90
2019-05-10T19:25:51.541Z,99.90
2019-05-10T19:28:21.166Z,99.90
2019-05-10T19:30:52.722Z,99.90
2019-05-10T19:33:19.652Z,99.90
2019-05-10T19:35:49.029Z,99.90
2019-05-10T19:38:18.408Z,99.90
2019-05-10T19:40:47.843Z,99.90
2019-05-10T19:43:21.806Z,99.90
2019-05-10T19:45:56.651Z,99.90
2019-05-10T19:48:19.664Z,99.90
2019-05-10T19:50:49.152Z,99.90
2019-05-10T19:53:18.676Z,99.90
2019-05-10T19:55:51.393Z,99.90
2019-05-10T19:58:19.371Z,99.90
2019-05-10T20:00:48.830Z,99.90
2019-05-10T20:03:18.843Z,99.90
2019-05-10T20:05:48.859Z,99.90
2019-05-10T20:08:18.284Z,99.90
2019-05-10T20:10:47.696Z,99.90
2019-05-10T20:13:17.074Z,99.90
2019-05-10T20:15:46.519Z,99.90
2019-05-10T20:18:16.021Z,99.90
2019-05-10T20:20:46.090Z,99.90
2019-05-10T20:23:15.407Z,99.90
2019-05-10T20:25:44.779Z,99.90
2019-05-10T20:28:14.125Z,99.90
2019-05-10T20:30:43.438Z,99.90
2019-05-10T20:33:12.881Z,99.90
2019-05-10T20:35:42.142Z,99.90
2019-05-10T20:38:11.556Z,99.90
2019-05-10T20:40:40.934Z,99.90
2019-05-10T20:43:10.693Z,99.90
2019-05-10T20:45:40.202Z,99.90
2019-05-10T20:48:09.474Z,99.90
2019-05-10T20:50:38.824Z,99.90
2019-05-10T20:53:08.188Z,99.90
2019-05-10T20:55:37.533Z,99.90
2019-05-10T20:58:07.982Z,99.90
2019-05-10T21:00:37.846Z,99.90
2019-05-10T21:03:07.199Z,99.90
2019-05-10T21:05:36.473Z,99.90
2019-05-10T21:08:16.649Z,99.90
2019-05-10T21:10:37.030Z,99.90
2019-05-10T21:13:07.312Z,99.90
2019-05-10T21:15:36.611Z,99.90
2019-05-10T21:18:05.988Z,99.90
2019-05-10T21:20:35.363Z,99.90
2019-05-10T21:23:04.714Z,99.90
2019-05-10T21:25:34.065Z,99.90
2019-05-10T21:28:03.448Z,99.90
2019-05-10T21:30:32.832Z,99.90
2019-05-10T21:33:02.090Z,99.90
2019-05-10T21:35:31.593Z,99.90
2019-05-10T21:38:00.954Z,99.90
2019-05-10T21:40:30.315Z,99.90
2019-05-10T21:42:59.631Z,99.90
2019-05-10T21:45:28.865Z,99.90
2019-05-10T21:47:58.187Z,99.90
2019-05-10T21:50:27.434Z,99.90
2019-05-10T21:52:56.757Z,99.90
2019-05-10T21:55:26.113Z,99.90
2019-05-10T21:57:55.430Z,99.90
2019-05-10T22:00:26.872Z,99.90
2019-05-10T22:02:56.190Z,99.90
2019-05-10T22:05:25.562Z,99.90
2019-05-10T22:07:54.867Z,99.90
2019-05-10T22:10:24.180Z,99.90
2019-05-10T22:12:53.425Z,99.90
2019-05-10T22:15:22.724Z,99.90
2019-05-10T22:17:51.975Z,99.90
2019-05-10T22:20:21.297Z,99.90
2019-05-10T22:22:50.614Z,99.90
2019-05-10T22:25:19.959Z,99.90
2019-05-10T22:27:49.203Z,99.90
2019-05-10T22:30:21.303Z,99.90
2019-05-10T22:32:50.586Z,99.90
2019-05-10T22:35:19.837Z,99.90
2019-05-10T22:37:49.078Z,99.90
2019-05-10T22:40:18.404Z,99.90
2019-05-10T22:42:47.630Z,99.90
2019-05-10T22:45:17.191Z,99.90
2019-05-10T22:47:46.441Z,99.90
2019-05-10T22:50:15.674Z,99.90
2019-05-10T22:52:44.933Z,99.90
2019-05-10T22:55:14.340Z,99.90
2019-05-10T22:57:43.652Z,99.90
2019-05-10T23:00:13.667Z,99.90
2019-05-10T23:02:43.019Z,99.90
2019-05-10T23:05:12.319Z,99.90
2019-05-10T23:07:41.576Z,99.90
2019-05-10T23:10:11.352Z,99.90
2019-05-10T23:12:40.678Z,99.90
2019-05-10T23:15:10.322Z,99.90
2019-05-10T23:17:39.641Z,99.90
2019-05-10T23:20:08.983Z,99.90
2019-05-10T23:22:38.288Z,99.90
2019-05-10T23:25:08.042Z,99.90
2019-05-10T23:27:37.287Z,99.90
2019-05-10T23:30:07.827Z,99.90
2019-05-10T23:32:37.582Z,99.90
2019-05-10T23:35:06.843Z,99.90
2019-05-10T23:37:36.091Z,99.90
2019-05-10T23:40:05.798Z,99.90
2019-05-10T23:42:35.030Z,99.90
2019-05-10T23:45:04.658Z,99.90
2019-05-10T23:47:33.903Z,99.90
2019-05-10T23:50:03.280Z,99.90
2019-05-10T23:52:32.552Z,99.90
2019-05-10T23:55:02.447Z,99.90
2019-05-10T23:57:31.808Z,99.90
